Time;durP1;ratioP1;P1;durP2;ratioP2;P2;SDS_P1;SDS_P2;PMS_P1;PMS_P2;Temp;Humidity;BMP_temperature;BMP_pressure;BME280_temperature;BME280_humidity;BME280_pressure;Samples;Min_cycle;Max_cycle;Signal;HPM_P1;HPM_P2
2023/01/24 00:01:24;;;;;;;21.00;14.00;;;3.60;99.90;;;;;;5133218;27;20031;-63
2023/01/24 00:03:50;;;;;;;21.80;14.20;;;3.70;99.90;;;;;;5133105;27;20034;-62
2023/01/24 00:06:16;;;;;;;24.08;13.73;;;3.70;99.90;;;;;;5131606;27;20031;-63
2023/01/24 00:08:42;;;;;;;20.70;14.02;;;3.70;99.90;;;;;;5131510;27;20039;-62
2023/01/24 00:11:10;;;;;;;21.15;14.32;;;3.70;99.90;;;;;;5133179;27;20057;-63
2023/01/24 00:13:36;;;;;;;21.77;14.80;;;3.60;99.90;;;;;;5133036;27;20118;-63
2023/01/24 00:16:15;;;;;;;22.02;14.82;;;3.70;99.90;;;;;;5132996;27;20076;-63
2023/01/24 00:18:41;;;;;;;19.98;14.55;;;3.60;99.90;;;;;;5132724;27;20035;-63
2023/01/24 00:21:15;;;;;;;19.75;14.15;;;3.70;99.90;;;;;;5132758;27;20031;-63
2023/01/24 00:23:43;;;;;;;19.55;14.63;;;3.70;99.90;;;;;;5132762;27;20035;-62
2023/01/24 00:26:09;;;;;;;21.75;14.45;;;3.70;99.90;;;;;;5132982;27;20431;-63
2023/01/24 00:28:34;;;;;;;20.65;14.43;;;3.70;99.90;;;;;;5132627;27;20051;-62
2023/01/24 00:31:00;;;;;;;21.95;14.60;;;3.60;99.90;;;;;;5132760;28;20404;-62
2023/01/24 00:33:26;;;;;;;24.35;16.17;;;3.70;99.90;;;;;;5132130;27;20060;-63
2023/01/24 00:35:52;;;;;;;23.60;15.23;;;3.70;99.90;;;;;;5131577;28;20039;-64
2023/01/24 00:38:19;;;;;;;23.52;15.02;;;3.70;99.90;;;;;;5130283;28;20565;-62
2023/01/24 00:40:45;;;;;;;22.92;15.55;;;3.60;99.90;;;;;;5131409;28;20031;-63
2023/01/24 00:43:10;;;;;;;22.92;15.18;;;3.60;99.90;;;;;;5132749;28;20084;-63
2023/01/24 00:45:37;;;;;;;22.42;15.10;;;3.60;99.90;;;;;;5132471;28;20468;-63
2023/01/24 00:48:05;;;;;;;20.38;14.63;;;3.60;99.90;;;;;;5132467;28;20035;-62
2023/01/24 00:50:31;;;;;;;22.40;14.75;;;3.60;99.90;;;;;;5114396;28;20043;-63
2023/01/24 00:52:56;;;;;;;22.27;15.15;;;3.60;99.90;;;;;;5132504;28;20397;-63
2023/01/24 00:55:22;;;;;;;22.77;16.23;;;3.60;99.90;;;;;;5132676;28;20035;-63
2023/01/24 00:57:48;;;;;;;23.15;15.32;;;3.60;99.90;;;;;;5132335;28;20035;-63
2023/01/24 01:00:13;;;;;;;20.52;14.63;;;3.60;99.90;;;;;;5132279;28;20035;-63
2023/01/24 01:02:39;;;;;;;23.38;15.95;;;3.60;99.90;;;;;;5132372;28;20034;-63
2023/01/24 01:05:05;;;;;;;21.17;15.15;;;3.60;99.90;;;;;;5132364;28;20140;-63
2023/01/24 01:07:31;;;;;;;23.25;14.68;;;3.60;99.90;;;;;;5132012;28;20096;-63
2023/01/24 01:09:57;;;;;;;21.10;15.80;;;3.60;99.90;;;;;;5132541;28;20474;-63
2023/01/24 01:12:23;;;;;;;22.92;15.95;;;3.60;99.90;;;;;;5132493;28;20047;-63
2023/01/24 01:14:49;;;;;;;23.10;15.88;;;3.70;99.90;;;;;;5132690;28;20043;-63
2023/01/24 01:17:15;;;;;;;21.95;15.55;;;3.60;99.90;;;;;;5114050;28;20096;-62
2023/01/24 01:19:41;;;;;;;19.80;14.35;;;3.60;99.90;;;;;;5132232;28;20027;-62
2023/01/24 01:22:07;;;;;;;21.77;15.60;;;3.60;99.90;;;;;;5132126;28;20039;-62
2023/01/24 01:24:32;;;;;;;20.98;14.60;;;3.70;99.90;;;;;;5132266;28;20393;-63
2023/01/24 01:26:59;;;;;;;20.92;15.07;;;3.70;99.90;;;;;;5113180;28;20050;-62
2023/01/24 01:29:24;;;;;;;21.70;15.57;;;3.70;99.90;;;;;;5113670;28;20061;-62
2023/01/24 01:31:50;;;;;;;25.60;15.65;;;3.70;99.90;;;;;;5132194;28;20035;-63
2023/01/24 01:34:15;;;;;;;25.02;16.13;;;3.70;99.90;;;;;;5132074;28;20039;-63
2023/01/24 01:36:41;;;;;;;23.67;16.38;;;3.70;99.90;;;;;;5131580;28;20039;-62
2023/01/24 01:39:07;;;;;;;23.25;16.35;;;3.70;99.90;;;;;;5132156;28;20228;-63
2023/01/24 01:41:32;;;;;;;23.63;15.75;;;3.70;99.90;;;;;;5131970;28;20039;-63
2023/01/24 01:44:38;;;;;;;23.10;16.27;;;3.70;99.90;;;;;;5132142;27;20114;-63
2023/01/24 01:47:14;;;;;;;24.95;16.90;;;3.70;99.90;;;;;;5135504;27;20047;-62
2023/01/24 01:50:05;;;;;;;22.90;16.38;;;3.70;99.90;;;;;;5135829;27;20046;-63
2023/01/24 01:52:36;;;;;;;23.50;16.60;;;3.70;99.90;;;;;;5117340;27;20091;-62
2023/01/24 01:55:15;;;;;;;22.08;16.67;;;3.70;99.90;;;;;;5117411;27;20039;-63
2023/01/24 01:57:42;;;;;;;24.70;16.92;;;3.70;99.90;;;;;;5135372;27;20477;-63
2023/01/24 02:00:15;;;;;;;22.45;16.75;;;3.70;99.90;;;;;;5135571;27;20039;-63
2023/01/24 02:02:44;;;;;;;25.20;17.45;;;3.70;99.90;;;;;;5135471;27;20035;-63
2023/01/24 02:05:13;;;;;;;27.95;17.60;;;3.70;99.90;;;;;;5135345;27;20035;-63
2023/01/24 02:07:50;;;;;;;26.80;17.42;;;3.70;99.90;;;;;;5135387;27;20396;-62
2023/01/24 02:10:19;;;;;;;25.38;17.17;;;3.70;99.90;;;;;;5135405;27;20444;-62
2023/01/24 02:12:48;;;;;;;25.85;17.42;;;3.70;99.90;;;;;;5135353;27;20035;-63
2023/01/24 02:18:06;;;;;;;25.70;17.92;;;3.70;99.90;;;;;;5134872;27;20043;-63
2023/01/24 02:20:45;;;;;;;27.90;18.13;;;3.70;99.90;;;;;;5135287;27;20386;-62
2023/01/24 02:23:38;;;;;;;25.00;17.33;;;3.70;99.90;;;;;;5135083;27;20060;-63
2023/01/24 02:26:08;;;;;;;25.45;18.20;;;3.70;99.90;;;;;;5134901;27;20042;-62
2023/01/24 02:28:34;;;;;;;25.33;17.90;;;3.70;99.90;;;;;;5134519;27;20492;-62
2023/01/24 02:31:01;;;;;;;26.83;17.55;;;3.70;99.90;;;;;;5135031;27;20043;-63
2023/01/24 02:33:27;;;;;;;28.17;17.88;;;3.70;99.90;;;;;;5134943;27;20042;-62
2023/01/24 02:36:09;;;;;;;27.00;17.63;;;3.70;99.90;;;;;;5134703;27;20047;-62
2023/01/24 02:38:35;;;;;;;26.98;17.83;;;3.70;99.90;;;;;;5134565;27;20039;-62
2023/01/24 02:41:06;;;;;;;21.60;16.25;;;3.60;99.90;;;;;;5116115;27;20066;-63
2023/01/24 02:43:36;;;;;;;25.10;16.42;;;3.70;99.90;;;;;;5134804;27;20032;-62
2023/01/24 02:46:02;;;;;;;25.85;17.38;;;3.70;99.90;;;;;;5134614;27;20115;-63
2023/01/24 02:48:28;;;;;;;23.75;17.20;;;3.70;99.90;;;;;;5134631;27;20035;-63
2023/01/24 02:53:39;;;;;;;24.90;16.80;;;3.70;99.90;;;;;;5134331;27;20047;-63
2023/01/24 02:58:52;;;;;;;23.30;17.15;;;3.70;99.90;;;;;;5115720;27;20054;-63
2023/01/24 03:01:19;;;;;;;24.98;16.75;;;3.70;99.90;;;;;;5134213;27;20073;-62
2023/01/24 03:03:46;;;;;;;24.08;17.10;;;3.60;99.90;;;;;;5134075;27;20027;-63
2023/01/24 03:06:14;;;;;;;21.38;15.32;;;3.60;99.90;;;;;;5134034;27;20381;-63
2023/01/24 03:08:40;;;;;;;19.63;14.57;;;3.60;99.90;;;;;;5134167;27;20038;-63
2023/01/24 03:11:06;;;;;;;19.92;14.52;;;3.60;99.90;;;;;;5134042;27;20119;-63
2023/01/24 03:35:30;;;;;;;15.70;12.05;;;3.70;99.90;;;;;;5133710;27;20074;-62
2023/01/24 03:40:40;;;;;;;17.67;12.38;;;3.70;99.90;;;;;;5133515;27;20035;-63
2023/01/24 03:43:06;;;;;;;18.88;13.60;;;3.70;99.90;;;;;;5133456;27;20088;-63
2023/01/24 03:45:34;;;;;;;18.15;13.15;;;3.70;99.90;;;;;;5133218;27;20465;-63
2023/01/24 03:48:02;;;;;;;18.10;13.00;;;3.80;99.90;;;;;;5133261;27;20092;-63
2023/01/24 03:53:19;;;;;;;20.53;14.60;;;3.80;99.90;;;;;;5133299;27;20047;-63
2023/01/24 03:55:45;;;;;;;20.65;14.93;;;3.70;99.90;;;;;;5133190;27;20626;-63
2023/01/24 03:58:12;;;;;;;18.63;14.13;;;3.70;99.90;;;;;;5132785;27;20039;-62
2023/01/24 04:00:38;;;;;;;21.77;14.98;;;3.80;99.90;;;;;;5133176;27;20064;-63
2023/01/24 04:03:05;;;;;;;23.70;15.38;;;3.70;99.90;;;;;;5133039;27;20481;-62
2023/01/24 04:05:33;;;;;;;21.90;15.13;;;3.70;99.90;;;;;;5133239;27;20043;-62
2023/01/24 04:07:58;;;;;;;22.95;15.70;;;3.70;99.90;;;;;;5132109;27;20035;-62
2023/01/24 04:10:24;;;;;;;21.40;14.82;;;3.70;99.90;;;;;;5133004;27;20042;-62
2023/01/24 04:12:50;;;;;;;19.60;14.18;;;3.70;99.90;;;;;;5114451;27;20043;-63
2023/01/24 04:15:18;;;;;;;19.38;14.23;;;3.70;99.90;;;;;;5132972;27;20059;-63
2023/01/24 04:17:44;;;;;;;24.02;15.05;;;3.70;99.90;;;;;;5132935;27;20042;-63
2023/01/24 04:20:10;;;;;;;21.05;14.73;;;3.70;99.90;;;;;;5132852;27;20027;-62
2023/01/24 04:22:36;;;;;;;20.00;14.77;;;3.60;99.90;;;;;;5132832;27;20110;-63
2023/01/24 04:25:02;;;;;;;22.83;15.38;;;3.70;99.90;;;;;;5132658;27;20438;-63
2023/01/24 04:27:27;;;;;;;21.13;14.55;;;3.70;99.90;;;;;;5132663;27;20035;-63
2023/01/24 04:29:53;;;;;;;19.48;14.27;;;3.70;99.90;;;;;;5132422;27;20065;-63
2023/01/24 04:32:19;;;;;;;18.70;14.45;;;3.60;99.90;;;;;;5132893;28;20053;-63
2023/01/24 04:34:44;;;;;;;18.73;12.90;;;3.70;99.90;;;;;;5132681;28;20082;-63
2023/01/24 04:37:10;;;;;;;20.63;13.93;;;3.60;99.90;;;;;;5114167;28;20088;-62
2023/01/24 04:39:36;;;;;;;15.63;11.90;;;3.60;99.90;;;;;;5132648;28;20370;-63
2023/01/24 04:42:01;;;;;;;15.85;12.00;;;3.60;99.90;;;;;;5132747;28;20251;-63
2023/01/24 04:44:27;;;;;;;17.83;12.15;;;3.60;99.90;;;;;;5114752;28;20031;-63
2023/01/24 04:46:53;;;;;;;14.38;12.20;;;3.60;99.90;;;;;;5132563;28;20481;-63
2023/01/24 04:49:18;;;;;;;16.33;12.32;;;3.60;99.90;;;;;;5132639;28;20050;-63
2023/01/24 04:51:47;;;;;;;16.20;12.10;;;3.60;99.90;;;;;;5132464;28;20374;-63
2023/01/24 04:54:12;;;;;;;16.23;12.98;;;3.60;99.90;;;;;;5132525;28;20047;-63
2023/01/24 04:56:38;;;;;;;15.38;11.93;;;3.60;99.90;;;;;;5132279;28;20058;-63
2023/01/24 04:59:05;;;;;;;17.60;12.18;;;3.60;99.90;;;;;;5132249;28;20039;-63
2023/01/24 05:01:30;;;;;;;16.70;12.93;;;3.60;99.90;;;;;;5132432;28;20034;-63
2023/01/24 05:03:58;;;;;;;14.98;12.35;;;3.60;99.90;;;;;;5132436;28;20027;-63
2023/01/24 05:06:29;;;;;;;15.93;12.68;;;3.60;99.90;;;;;;5132160;28;20477;-63
2023/01/24 05:08:55;;;;;;;17.48;13.20;;;3.60;99.90;;;;;;5132150;28;20047;-63
2023/01/24 05:11:21;;;;;;;16.63;12.73;;;3.60;99.90;;;;;;5132379;28;20042;-63
2023/01/24 05:13:47;;;;;;;19.08;14.13;;;3.60;99.90;;;;;;5132444;28;20032;-63
2023/01/24 05:16:13;;;;;;;19.58;14.10;;;3.60;99.90;;;;;;5132186;28;20053;-63
2023/01/24 05:18:38;;;;;;;18.70;14.10;;;3.90;99.90;;;;;;5132289;27;20101;-64
2023/01/24 05:21:10;;;;;;;18.77;14.25;;;3.60;99.90;;;;;;5136227;27;20075;-63
2023/01/24 05:23:36;;;;;;;17.55;13.68;;;3.60;99.90;;;;;;5136057;27;20027;-63
2023/01/24 05:26:02;;;;;;;17.98;14.35;;;3.60;99.90;;;;;;5136303;27;20039;-63
2023/01/24 05:28:28;;;;;;;18.33;13.77;;;3.60;99.90;;;;;;5135957;27;20062;-63
2023/01/24 05:31:02;;;;;;;19.00;14.60;;;3.50;99.90;;;;;;5136025;27;20051;-63
2023/01/24 05:33:28;;;;;;;17.85;14.23;;;3.60;99.90;;;;;;5118301;27;20047;-63
2023/01/24 05:36:14;;;;;;;21.08;14.07;;;3.50;99.90;;;;;;5136035;27;20100;-63
2023/01/24 05:38:41;;;;;;;19.92;14.05;;;3.50;99.90;;;;;;5135684;27;20551;-63
2023/01/24 05:41:09;;;;;;;19.73;14.90;;;3.50;99.90;;;;;;5135006;27;20069;-63
2023/01/24 05:43:36;;;;;;;18.42;13.88;;;3.50;99.90;;;;;;5134125;27;20034;-63
2023/01/24 05:46:08;;;;;;;20.58;15.50;;;3.50;99.90;;;;;;5135765;27;20043;-63
2023/01/24 05:48:34;;;;;;;20.80;15.00;;;3.50;99.90;;;;;;5135599;27;20039;-63
2023/01/24 05:51:05;;;;;;;22.58;15.63;;;3.50;99.90;;;;;;5135666;27;20058;-63
2023/01/24 05:53:33;;;;;;;21.15;15.68;;;3.50;99.90;;;;;;5135558;27;20499;-63
2023/01/24 05:56:05;;;;;;;20.65;16.08;;;3.50;99.90;;;;;;5135531;27;20060;-63
2023/01/24 05:58:35;;;;;;;21.95;16.48;;;3.50;99.90;;;;;;5135401;27;20046;-63
2023/01/24 06:01:05;;;;;;;23.50;16.50;;;3.40;99.90;;;;;;5135355;27;20392;-63
2023/01/24 06:03:30;;;;;;;23.60;16.85;;;3.50;99.90;;;;;;5135154;27;20042;-63
2023/01/24 06:05:56;;;;;;;22.92;16.83;;;3.50;99.90;;;;;;5135538;27;20039;-63
2023/01/24 06:08:22;;;;;;;23.92;17.13;;;3.50;99.90;;;;;;5133696;27;20091;-63
2023/01/24 06:10:48;;;;;;;24.65;16.95;;;3.50;99.90;;;;;;5133250;27;20469;-64
2023/01/24 06:13:14;;;;;;;22.73;17.20;;;3.40;99.90;;;;;;5134720;27;20046;-63
2023/01/24 06:15:40;;;;;;;25.08;18.13;;;3.40;99.90;;;;;;5135044;27;20035;-63
2023/01/24 06:18:08;;;;;;;25.95;18.80;;;3.40;99.90;;;;;;5135128;27;20096;-64
2023/01/24 06:20:34;;;;;;;23.15;17.75;;;3.40;99.90;;;;;;5135166;27;20449;-63
2023/01/24 06:23:09;;;;;;;23.85;17.17;;;3.30;99.90;;;;;;5135017;27;20122;-63
2023/01/24 06:25:35;;;;;;;23.63;17.00;;;3.40;99.90;;;;;;5135121;27;20039;-64
2023/01/24 06:28:01;;;;;;;27.30;18.23;;;3.30;99.90;;;;;;5116110;27;20058;-63
2023/01/24 06:30:27;;;;;;;27.52;19.45;;;3.30;99.90;;;;;;5115677;28;20047;-63
2023/01/24 06:33:16;;;;;;;26.95;19.33;;;3.30;99.90;;;;;;5134861;27;20064;-63
2023/01/24 06:36:17;;;;;;;26.17;18.38;;;3.30;99.90;;;;;;5099573;27;20112;-63
2023/01/24 06:38:43;;;;;;;26.00;17.73;;;3.30;99.90;;;;;;5133273;27;20039;-63
2023/01/24 06:41:16;;;;;;;25.15;18.30;;;3.30;99.90;;;;;;5132538;27;20042;-63
2023/01/24 06:43:45;;;;;;;25.35;17.95;;;3.40;99.90;;;;;;5115791;27;20088;-63
2023/01/24 06:46:12;;;;;;;;;;;3.30;99.90;;;;;;5134909;27;20039;-63
2023/01/24 06:48:37;;;;;;;28.38;19.58;;;3.30;99.90;;;;;;5134446;27;19915;-63
2023/01/24 06:51:04;;;;;;;31.00;18.83;;;3.30;99.90;;;;;;5116201;27;20388;-64
2023/01/24 06:53:31;;;;;;;26.00;19.35;;;3.20;99.90;;;;;;5134519;27;20393;-64
2023/01/24 06:55:57;;;;;;;27.05;19.17;;;3.30;99.90;;;;;;5134096;27;20477;-63
2023/01/24 06:58:22;;;;;;;29.23;21.13;;;3.20;99.90;;;;;;5134204;27;20069;-63
2023/01/24 07:00:48;;;;;;;28.33;19.40;;;3.20;99.90;;;;;;5134213;27;20031;-63
2023/01/24 07:03:13;;;;;;;26.55;19.23;;;3.20;99.90;;;;;;5133928;27;20393;-63
2023/01/24 07:05:39;;;;;;;29.23;20.20;;;3.20;99.90;;;;;;5134341;27;20066;-64
2023/01/24 07:08:05;;;;;;;26.67;19.90;;;3.20;99.90;;;;;;5133797;27;20042;-63
2023/01/24 07:10:32;;;;;;;27.77;19.55;;;3.20;99.90;;;;;;5133967;27;20039;-63
2023/01/24 07:12:58;;;;;;;26.63;19.50;;;3.20;99.90;;;;;;5133965;27;20031;-63
2023/01/24 07:15:24;;;;;;;28.55;18.85;;;3.20;99.90;;;;;;5133761;27;20492;-63
2023/01/24 07:17:50;;;;;;;27.17;18.85;;;3.10;99.90;;;;;;5133663;27;20035;-63
2023/01/24 07:20:16;;;;;;;28.75;19.77;;;3.10;99.90;;;;;;5133677;27;20023;-63
2023/01/24 07:22:42;;;;;;;24.42;17.77;;;3.20;99.90;;;;;;5133671;27;20031;-63
2023/01/24 07:25:17;;;;;;;26.70;18.60;;;3.20;99.90;;;;;;5115291;27;20046;-63
2023/01/24 07:27:43;;;;;;;26.95;19.02;;;3.20;99.90;;;;;;5133790;27;20054;-63
2023/01/24 07:30:10;;;;;;;26.63;18.35;;;3.20;99.90;;;;;;5133219;27;20131;-63
2023/01/24 07:32:36;;;;;;;30.67;18.80;;;3.20;99.90;;;;;;5133514;27;20043;-62
2023/01/24 07:35:02;;;;;;;28.10;20.17;;;3.20;99.90;;;;;;5133597;27;20047;-62
2023/01/24 07:37:28;;;;;;;27.98;18.52;;;3.20;99.90;;;;;;5133672;27;20122;-61
2023/01/24 07:39:54;;;;;;;28.52;19.42;;;3.10;99.90;;;;;;5133455;27;20107;-61
2023/01/24 07:42:20;;;;;;;24.90;17.98;;;3.20;99.90;;;;;;5133555;27;20085;-62
2023/01/24 07:44:45;;;;;;;27.20;17.38;;;3.20;99.90;;;;;;5133197;27;20532;-62
2023/01/24 07:47:11;;;;;;;24.30;17.20;;;3.20;99.90;;;;;;5133358;27;20110;-61
2023/01/24 07:49:36;;;;;;;22.98;16.55;;;3.20;99.90;;;;;;5133795;27;20068;-62
2023/01/24 07:52:02;;;;;;;21.75;16.50;;;3.10;99.90;;;;;;5133699;27;20078;-62
2023/01/24 07:54:28;;;;;;;22.30;16.42;;;3.10;99.90;;;;;;5133163;27;20062;-62
2023/01/24 07:56:53;;;;;;;22.67;16.60;;;3.10;99.90;;;;;;5133297;27;20038;-62
2023/01/24 07:59:19;;;;;;;23.65;16.45;;;3.10;99.90;;;;;;5132978;27;20041;-61
2023/01/24 08:01:45;;;;;;;22.05;15.90;;;3.20;99.90;;;;;;5133013;27;20041;-62
2023/01/24 08:04:10;;;;;;;19.88;15.73;;;3.20;99.90;;;;;;5133072;27;20035;-62
2023/01/24 08:06:37;;;;;;;21.75;15.82;;;3.10;99.90;;;;;;5115126;27;20042;-62
2023/01/24 08:09:03;;;;;;;22.70;16.58;;;3.20;99.90;;;;;;5133160;27;20039;-62
2023/01/24 08:11:29;;;;;;;20.65;16.08;;;3.20;99.90;;;;;;5133101;27;20114;-61
2023/01/24 08:13:54;;;;;;;20.15;15.63;;;3.20;99.90;;;;;;5114648;27;20454;-62
2023/01/24 08:16:23;;;;;;;22.55;15.73;;;3.10;99.90;;;;;;5133014;27;20042;-62
2023/01/24 08:18:49;;;;;;;21.83;15.95;;;3.10;99.90;;;;;;5132836;27;20474;-62
2023/01/24 08:21:16;;;;;;;19.10;15.60;;;3.10;99.90;;;;;;5133056;27;20039;-62
2023/01/24 08:23:41;;;;;;;21.88;16.40;;;3.10;99.90;;;;;;5133133;27;20115;-62
2023/01/24 08:26:07;;;;;;;19.63;15.52;;;3.20;99.90;;;;;;5132785;27;20122;-62
2023/01/24 08:28:33;;;;;;;19.23;15.10;;;3.20;99.90;;;;;;5132608;27;20051;-61
2023/01/24 08:30:59;;;;;;;21.35;15.00;;;3.20;99.90;;;;;;5132676;27;20039;-61
2023/01/24 08:33:25;;;;;;;20.73;14.80;;;3.20;99.90;;;;;;5132976;27;20031;-61
2023/01/24 08:35:51;;;;;;;20.65;14.60;;;3.20;99.90;;;;;;5132745;28;20046;-61
2023/01/24 08:38:17;;;;;;;20.77;14.95;;;3.20;99.90;;;;;;5132782;28;20050;-62
2023/01/24 08:40:42;;;;;;;20.20;14.38;;;3.20;99.90;;;;;;5133156;28;20043;-61
2023/01/24 08:43:08;;;;;;;18.92;14.38;;;3.20;99.90;;;;;;5132621;28;20076;-62
2023/01/24 08:45:34;;;;;;;16.10;13.27;;;3.30;99.90;;;;;;5132531;28;20062;-61
2023/01/24 08:48:00;;;;;;;18.88;13.82;;;3.30;99.90;;;;;;5132669;28;20474;-61
2023/01/24 08:50:26;;;;;;;21.42;14.57;;;3.20;99.90;;;;;;5132682;28;20046;-62
2023/01/24 08:52:55;;;;;;;20.13;14.27;;;3.20;99.90;;;;;;5132625;28;20043;-61
2023/01/24 08:55:21;;;;;;;19.63;15.35;;;3.20;99.90;;;;;;5135773;27;20046;-61
2023/01/24 08:57:47;;;;;;;18.27;13.45;;;3.30;99.90;;;;;;5136598;27;20043;-62
2023/01/24 09:00:13;;;;;;;17.50;13.38;;;3.30;99.90;;;;;;5136169;27;20501;-62
2023/01/24 09:02:39;;;;;;;18.58;14.10;;;3.30;99.90;;;;;;5136403;27;20035;-62
2023/01/24 09:05:06;;;;;;;17.98;13.57;;;3.30;99.90;;;;;;5136656;27;20119;-62
2023/01/24 09:07:31;;;;;;;18.30;13.98;;;3.30;99.90;;;;;;5118225;27;20114;-62
2023/01/24 09:09:57;;;;;;;18.88;14.15;;;3.30;99.90;;;;;;5134351;27;21420;-62
2023/01/24 09:12:23;;;;;;;17.90;13.77;;;3.30;99.90;;;;;;5134962;27;20096;-62
2023/01/24 09:14:48;;;;;;;16.92;13.60;;;3.30;99.90;;;;;;5135294;27;20067;-63
2023/01/24 09:17:14;;;;;;;17.92;13.48;;;3.30;99.90;;;;;;5136476;27;20035;-62
2023/01/24 09:19:39;;;;;;;17.55;12.75;;;3.30;99.90;;;;;;5136542;27;20067;-62
2023/01/24 09:22:05;;;;;;;17.90;13.30;;;3.30;99.90;;;;;;5136367;27;20447;-62
2023/01/24 09:24:31;;;;;;;16.23;11.73;;;3.20;99.90;;;;;;5136240;27;20586;-62
2023/01/24 09:26:56;;;;;;;17.70;11.57;;;3.30;99.90;;;;;;5136197;27;20031;-62
2023/01/24 09:29:22;;;;;;;18.00;12.25;;;3.30;99.90;;;;;;5136416;27;20178;-62
2023/01/24 09:31:48;;;;;;;15.77;11.63;;;3.30;99.90;;;;;;5136085;27;20047;-62
2023/01/24 09:34:14;;;;;;;15.60;11.40;;;3.30;99.90;;;;;;5117803;27;20042;-62
2023/01/24 09:36:39;;;;;;;14.38;10.80;;;3.30;99.90;;;;;;5117012;27;20047;-62
2023/01/24 09:39:05;;;;;;;15.20;11.60;;;3.30;99.90;;;;;;5135596;27;20476;-62
2023/01/24 09:41:49;;;;;;;13.93;10.90;;;3.30;99.90;;;;;;5136072;27;20074;-62
2023/01/24 09:44:21;;;;;;;14.30;10.32;;;3.30;99.90;;;;;;5135638;27;20035;-62
2023/01/24 09:46:50;;;;;;;13.38;9.63;;;3.30;99.90;;;;;;5135679;27;20476;-61
2023/01/24 09:49:39;;;;;;;15.95;10.95;;;3.20;99.90;;;;;;5135707;27;20126;-61
2023/01/24 09:52:14;;;;;;;15.65;11.02;;;3.30;99.90;;;;;;5135655;27;20035;-62
2023/01/24 09:55:05;;;;;;;15.55;10.43;;;3.30;99.90;;;;;;5135723;27;20043;-62
2023/01/24 09:57:37;;;;;;;;;;;3.30;99.90;;;;;;5052412;28;20395;-62
2023/01/24 10:00:21;;;;;;;14.93;10.27;;;3.30;99.90;;;;;;5051935;28;19920;-62
2023/01/24 10:02:47;;;;;;;15.27;10.27;;;3.30;99.90;;;;;;5052064;28;20049;-62
2023/01/24 10:05:15;;;;;;;13.02;9.30;;;3.30;99.90;;;;;;5051099;28;20053;-62
2023/01/24 10:07:59;;;;;;;15.20;10.60;;;3.40;99.90;;;;;;5051448;28;20041;-62
2023/01/24 10:10:43;;;;;;;14.57;10.05;;;3.30;99.90;;;;;;5052003;28;20283;-61
2023/01/24 10:13:27;;;;;;;16.95;10.65;;;3.40;99.90;;;;;;5051738;28;20554;-62
2023/01/24 10:16:11;;;;;;;15.90;10.32;;;3.40;99.90;;;;;;5051715;28;20083;-62
2023/01/24 10:18:55;;;;;;;15.77;10.52;;;3.40;99.90;;;;;;5051456;28;20095;-61
2023/01/24 10:21:49;;;;;;;14.07;10.32;;;3.40;99.90;;;;;;5051598;28;20392;-62
2023/01/24 10:24:21;;;;;;;14.98;11.10;;;3.30;99.90;;;;;;5051653;28;20407;-62
2023/01/24 10:26:49;;;;;;;15.70;11.20;;;3.40;99.90;;;;;;5051707;28;20048;-62
2023/01/24 10:29:20;;;;;;;14.82;10.57;;;3.40;99.90;;;;;;5051214;28;20057;-61
2023/01/24 10:31:58;;;;;;;14.45;10.65;;;3.40;99.90;;;;;;5051354;28;20053;-62
2023/01/24 10:34:42;;;;;;;14.63;10.40;;;3.40;99.90;;;;;;5088896;27;20082;-61
2023/01/24 10:37:27;;;;;;;14.55;10.27;;;3.40;99.90;;;;;;5134758;27;20469;-61
2023/01/24 10:39:52;;;;;;;13.95;9.52;;;3.40;99.90;;;;;;5116420;27;20051;-61
2023/01/24 10:42:21;;;;;;;17.65;10.68;;;3.40;99.90;;;;;;5134915;27;20043;-61
2023/01/24 10:44:47;;;;;;;15.20;10.57;;;3.50;99.90;;;;;;5134756;27;20075;-61
2023/01/24 10:47:49;;;;;;;17.48;10.40;;;3.50;99.90;;;;;;5134429;27;20085;-62
2023/01/24 10:50:16;;;;;;;14.48;10.38;;;3.50;99.90;;;;;;5134950;27;20039;-61
2023/01/24 10:52:43;;;;;;;13.93;10.27;;;3.50;99.90;;;;;;5134331;27;20050;-62
2023/01/24 10:55:37;;;;;;;16.48;10.93;;;3.50;99.90;;;;;;5134713;27;20039;-61
2023/01/24 10:58:20;;;;;;;14.40;10.45;;;3.50;99.90;;;;;;5134290;27;20114;-61
2023/01/24 11:00:48;;;;;;;14.73;10.15;;;3.50;99.90;;;;;;5134348;27;20050;-61
2023/01/24 11:03:19;;;;;;;14.00;10.05;;;3.50;99.90;;;;;;5134014;27;20079;-62
2023/01/24 11:05:54;;;;;;;14.48;10.80;;;3.50;99.90;;;;;;5134487;27;20041;-61
2023/01/24 11:08:34;;;;;;;15.70;10.65;;;3.40;99.90;;;;;;5134107;27;20587;-61
2023/01/24 11:11:00;;;;;;;13.45;10.32;;;3.50;99.90;;;;;;5134067;27;20493;-61
2023/01/24 11:13:32;;;;;;;15.30;10.70;;;3.50;99.90;;;;;;5133730;27;20039;-61
2023/01/24 11:16:04;;;;;;;16.55;10.77;;;3.60;99.90;;;;;;5133613;27;20504;-62
2023/01/24 11:18:31;;;;;;;15.80;10.68;;;3.50;99.90;;;;;;5097641;27;20078;-61
2023/01/24 11:21:07;;;;;;;14.57;10.68;;;3.50;99.90;;;;;;5133861;27;20500;-62
2023/01/24 11:23:32;;;;;;;14.80;10.52;;;3.50;99.90;;;;;;5133831;27;20058;-61
2023/01/24 11:26:01;;;;;;;15.48;11.02;;;3.50;99.90;;;;;;5133745;27;20483;-61
2023/01/24 11:28:37;;;;;;;16.83;11.15;;;3.50;99.90;;;;;;5133777;27;20039;-62
2023/01/24 11:31:25;;;;;;;16.02;10.18;;;3.50;99.90;;;;;;5133813;27;20050;-61
2023/01/24 11:33:51;;;;;;;14.13;10.93;;;3.50;99.90;;;;;;5133641;27;20144;-62
2023/01/24 11:36:51;;;;;;;17.23;11.02;;;3.50;99.90;;;;;;5133542;27;20397;-62
2023/01/24 11:39:24;;;;;;;17.65;11.65;;;3.50;99.90;;;;;;5049530;28;20391;-61
2023/01/24 11:42:04;;;;;;;16.63;11.43;;;3.50;99.90;;;;;;5050175;28;20392;-62
2023/01/24 11:44:57;;;;;;;14.57;10.65;;;3.60;99.90;;;;;;5050087;28;20069;-62
2023/01/24 11:47:33;;;;;;;15.15;10.65;;;3.60;99.90;;;;;;5033360;28;20103;-62
2023/01/24 11:50:30;;;;;;;19.27;11.52;;;3.50;99.90;;;;;;5049975;28;20041;-62
2023/01/24 11:53:24;;;;;;;16.52;11.52;;;3.50;99.90;;;;;;5033229;28;20052;-62
2023/01/24 11:55:59;;;;;;;17.42;12.10;;;3.50;99.90;;;;;;5049598;28;20049;-62
2023/01/24 11:58:51;;;;;;;17.52;11.73;;;3.60;99.90;;;;;;5049883;28;20391;-61
2023/01/24 12:01:32;;;;;;;15.13;11.65;;;3.50;99.90;;;;;;5049935;28;20056;-61
2023/01/24 12:04:31;;;;;;;16.33;11.48;;;3.50;99.90;;;;;;5046394;28;20400;-61
2023/01/24 12:07:21;;;;;;;16.85;11.32;;;3.50;99.90;;;;;;5049652;28;20507;-62
2023/01/24 12:10:07;;;;;;;16.50;10.85;;;3.50;99.90;;;;;;5016077;28;20053;-62
2023/01/24 12:12:46;;;;;;;15.25;11.10;;;3.50;99.90;;;;;;5049658;28;20402;-62
2023/01/24 12:15:17;;;;;;;17.90;11.85;;;3.60;99.90;;;;;;5077672;27;20078;-61
2023/01/24 12:18:17;;;;;;;16.92;11.02;;;3.50;99.90;;;;;;5133094;27;20108;-61
2023/01/24 12:21:03;;;;;;;16.20;11.98;;;3.50;99.90;;;;;;5132933;27;20039;-61
2023/01/24 12:23:52;;;;;;;16.98;11.45;;;3.50;99.90;;;;;;5133016;27;20046;-61
2023/01/24 12:26:24;;;;;;;17.20;12.02;;;3.50;99.90;;;;;;5132887;27;20042;-61
2023/01/24 12:29:09;;;;;;;16.98;11.95;;;3.50;99.90;;;;;;5132087;27;20431;-61
2023/01/24 12:31:44;;;;;;;16.02;11.48;;;3.50;99.90;;;;;;5132724;27;20541;-61
2023/01/24 12:34:26;;;;;;;15.65;11.55;;;3.50;99.90;;;;;;5132949;28;20051;-62
2023/01/24 12:37:00;;;;;;;15.30;11.38;;;3.50;99.90;;;;;;5132577;28;20050;-62
2023/01/24 12:39:37;;;;;;;14.93;11.75;;;3.50;99.90;;;;;;5132953;28;20182;-62
2023/01/24 12:42:21;;;;;;;18.23;12.05;;;3.60;99.90;;;;;;5132321;28;20088;-62
2023/01/24 12:44:59;;;;;;;17.30;12.07;;;3.60;99.90;;;;;;5132576;28;20035;-62
2023/01/24 12:47:38;;;;;;;17.83;11.30;;;3.60;99.90;;;;;;5132499;28;20027;-62
2023/01/24 12:50:07;;;;;;;17.10;11.45;;;3.70;99.90;;;;;;5132812;28;20076;-62
2023/01/24 12:52:39;;;;;;;16.92;12.43;;;3.60;99.90;;;;;;5133018;28;20126;-62
2023/01/24 12:55:59;;;;;;;16.15;10.93;;;3.70;99.90;;;;;;5132491;28;20365;-61
2023/01/24 12:58:30;;;;;;;16.02;11.77;;;3.70;99.90;;;;;;5049100;28;20091;-62
2023/01/24 13:01:12;;;;;;;15.80;11.98;;;3.60;99.90;;;;;;5032526;28;20147;-61
2023/01/24 13:04:26;;;;;;;16.83;12.40;;;3.60;99.90;;;;;;5031836;28;20044;-61
2023/01/24 13:07:22;;;;;;;17.98;12.32;;;3.60;99.90;;;;;;4989921;28;20109;-62
2023/01/24 13:09:59;;;;;;;16.77;11.88;;;3.60;99.90;;;;;;4987951;28;20045;-62
2023/01/24 13:12:27;;;;;;;15.88;12.10;;;3.60;99.90;;;;;;4988544;28;20117;-61
2023/01/24 13:14:58;;;;;;;19.45;13.15;;;3.60;99.90;;;;;;4988862;28;20046;-62
2023/01/24 13:17:50;;;;;;;19.40;11.80;;;3.60;99.90;;;;;;4989655;28;20046;-62
2023/01/24 13:20:35;;;;;;;17.58;12.32;;;3.60;99.90;;;;;;4989823;28;20061;-62
2023/01/24 13:23:15;;;;;;;20.23;13.27;;;3.60;99.90;;;;;;4988853;28;20636;-61
2023/01/24 13:25:49;;;;;;;15.60;11.50;;;3.60;99.90;;;;;;4989734;28;20045;-61
2023/01/24 13:28:54;;;;;;;19.27;11.95;;;3.60;99.90;;;;;;4973517;28;20046;-62
2023/01/24 13:31:29;;;;;;;18.55;12.10;;;3.60;99.90;;;;;;4950975;29;20110;-62
2023/01/24 13:34:20;;;;;;;16.45;12.02;;;3.60;99.90;;;;;;4985209;28;20069;-61